Weather at Bancroft Airport

Public forecast

Using degrees Celsius for public forecast. Weather courtesy of forecast.io.

Closest aviation weather report (METAR) to Bancroft Airport

Closest report is Peterborough Airport, 54.7 nm (101.2 km) SSW. Retrieved 2021/01/21 13:00 UTC (32 minutes ago):

CYPQ 211300Z AUTO 23007KT 9SM SCT028 OVC047 M01/M04 A2949 RMK SLP998

Closest aviation forecast (TAF) to Bancroft Airport

Closest forecast is Peterborough Airport, 54.7 nm (101.2 km) SSW. Retrieved 2021/01/21 14:39 UTC (0 seconds ago):

TAF TAF CYPQ 211338Z 2114/2202 23008KT P6SM SCT030 OVC040 TEMPO 2114/2116 P6SM -SHSN FM211600 23012G22KT P6SM OVC030 TEMPO 2116/2202 3SM -SHSN OVC020 BECMG 2200/2202 27012KT RMK FCST BASED ON AUTO OBS NXT FCST BY 212000Z